CW5478 Weather Reports


Display with metric or nautical units.
time (UTC)temp
F
wind
direction
speed
MPH
gust
MPH
rain 1hr
in
rain 24hr
in
rain mn
in
humidity
%
barometer
mb
20210615010303 78 141 12.0 17.0 0.00 0.00 0.00 35 1028.1
20210615005803 78 132 12.0 17.0 0.00 0.00 0.00 34 1028.1
20210615005305 78 138 10.0 17.0 0.00 0.00 0.00 33 1028.1
20210615004804 80 134 6.0 13.0 0.00 0.00 0.00 30 1028.1
20210615004304 81 127 6.0 8.0 0.00 0.00 0.00 27 1027.8
20210615003804 82 150 5.0 8.0 0.00 0.00 0.00 25 1027.8
20210615003303 83 127 5.0 9.0 0.00 0.00 0.00 24 1027.8
20210615002804 83 105 6.0 10.0 0.00 0.00 0.00 22 1027.8
20210615002306 83 101 4.0 5.0 0.00 0.00 0.00 22 1027.8
20210615001803 84 105 4.0 9.0 0.00 0.00 0.00 22 1027.8
20210615001304 85 109 5.0 8.0 0.00 0.00 0.00 21 1027.8
20210615000804 86 105 1.0 7.0 0.00 0.00 0.00 21 1027.8
20210615000304 87 82 3.0 5.0 0.00 0.00 0.00 21 1027.8
20210614235803 86 15 2.0 3.0 0.00 0.00 0.00 22 1027.8
20210614235305 85 105 0.0 0.0 0.00 0.00 0.00 22 1027.8
20210614234804 84 105 0.0 0.0 0.00 0.00 0.00 22 1027.8
20210614234304 84 127 0.0 0.0 0.00 0.00 0.00 22 1027.8
20210614233803 84 127 0.0 0.0 0.00 0.00 0.00 22 1027.8
20210614233304 84 127 0.0 0.0 0.00 0.00 0.00 22 1027.8
20210614232803 84 127 0.0 0.0 0.00 0.00 0.00 22 1027.8
20210614232305 84 127 0.0 1.0 0.00 0.00 0.00 22 1027.8
20210614231804 84 82 1.0 7.0 0.00 0.00 0.00 21 1028.1
20210614231303 83 105 7.0 7.0 0.00 0.00 0.00 22 1028.1
20210614230803 83 105 7.0 7.0 0.00 0.00 0.00 22 1028.1
20210614230303 83 105 7.0 7.0 0.00 0.00 0.00 22 1028.1
20210614225804 83 105 4.0 8.0 0.00 0.00 0.00 22 1028.1
20210614225305 83 127 7.0 9.0 0.00 0.00 0.00 22 1028.1
20210614224804 84 121 5.0 10.0 0.00 0.00 0.00 22 1028.2
20210614224303 85 93 9.0 10.0 0.00 0.00 0.00 23 1028.3
20210614223803 85 60 7.0 8.0 0.00 0.00 0.00 23 1028.1
20210614223304 84 355 5.0 8.0 0.00 0.00 0.00 23 1028.5
20210614222804 84 82 6.0 8.0 0.00 0.00 0.00 23 1028.1
20210614222305 83 352 8.0 8.0 0.00 0.00 0.00 24 1028.5
20210614221803 83 352 6.0 8.0 0.00 0.00 0.00 24 1028.5
20210614221304 83 330 7.0 13.0 0.00 0.00 0.00 24 1028.5
20210614220803 84 307 12.0 14.0 0.00 0.00 0.00 23 1028.5
20210614220304 84 323 3.0 8.0 0.00 0.00 0.00 23 1028.5
20210614215822 84 149 3.0 9.0 0.00 0.00 0.00 23 1028.5
20210614215306 85 84 7.0 10.0 0.00 0.00 0.00 23 1028.5
20210614214804 84 37 5.0 7.0 0.00 0.00 0.00 24 1028.5
20210614214304 84 73 6.0 8.0 0.00 0.00 0.00 24 1028.7
20210614213803 84 82 4.0 8.0 0.00 0.00 0.00 24 1028.5
20210614213303 85 15 2.0 6.0 0.00 0.00 0.00 23 1028.5
20210614212803 85 23 7.0 12.0 0.00 0.00 0.00 24 1028.5
20210614212305 84 46 7.0 13.0 0.00 0.00 0.00 24 1028.5
20210614211804 84 82 6.0 10.0 0.00 0.00 0.00 24 1028.8
20210614211304 84 287 2.0 12.0 0.00 0.00 0.00 24 1028.8
20210614210803 83 12 5.0 12.0 0.00 0.00 0.00 24 1028.5
20210614210304 83 317 3.0 13.0 0.00 0.00 0.00 24 1028.5
20210614205804 84 352 9.0 13.0 0.00 0.00 0.00 24 1028.8
20210614205305 83 92 6.0 13.0 0.00 0.00 0.00 23 1028.8
20210614204803 83 21 7.0 14.0 0.00 0.00 0.00 24 1028.8
20210614204304 83 63 8.0 12.0 0.00 0.00 0.00 24 1028.8
20210614203804 83 47 6.0 9.0 0.00 0.00 0.00 24 1028.8
20210614203304 83 60 7.0 12.0 0.00 0.00 0.00 24 1028.8
20210614202804 83 342 7.0 9.0 0.00 0.00 0.00 24 1028.8
20210614202306 83 99 4.0 8.0 0.00 0.00 0.00 24 1028.8
20210614201803 83 46 10.0 14.0 0.00 0.00 0.00 24 1028.8
20210614201304 83 60 9.0 16.0 0.00 0.00 0.00 23 1028.8
20210614200804 83 60 8.0 14.0 0.00 0.00 0.00 23 1029.1
20210614200304 82 37 7.0 12.0 0.00 0.00 0.00 24 1029.1
20210614195804 82 53 7.0 13.0 0.00 0.00 0.00 23 1029.1
20210614195306 82 76 3.0 12.0 0.00 0.00 0.00 22 1029.1
20210614194803 83 67 6.0 12.0 0.00 0.00 0.00 23 1029.1
20210614194304 83 45 10.0 15.0 0.00 0.00 0.00 22 1029.1
20210614193807 83 329 1.0 6.0 0.00 0.00 0.00 22 1029.1
20210614193304 83 15 6.0 14.0 0.00 0.00 0.00 23 1029.1
20210614192803 83 21 8.0 14.0 0.00 0.00 0.00 23 1029.1
20210614192305 82 15 5.0 12.0 0.00 0.00 0.00 23 1029.5
20210614191804 82 357 5.0 9.0 0.00 0.00 0.00 23 1029.5
20210614191304 82 14 6.0 13.0 0.00 0.00 0.00 23 1029.5
20210614190804 82 103 4.0 13.0 0.00 0.00 0.00 23 1029.5
20210614190304 81 69 5.0 12.0 0.00 0.00 0.00 23 1029.5
20210614185803 81 1 3.0 13.0 0.00 0.00 0.00 23 1029.5
20210614185305 80 11 7.0 13.0 0.00 0.00 0.00 23 1029.5
20210614184803 81 342 6.0 13.0 0.00 0.00 0.00 22 1029.5
20210614184303 82 348 7.0 12.0 0.00 0.00 0.00 22 1029.5
20210614183803 83 15 5.0 12.0 0.00 0.00 0.00 22 1029.5
20210614183305 82 37 8.0 12.0 0.00 0.00 0.00 21 1029.5
20210614182804 82 30 6.0 13.0 0.00 0.00 0.00 20 1029.8
20210614182305 82 60 6.0 13.0 0.00 0.00 0.00 19 1029.5
20210614181803 82 0 5.0 10.0 0.00 0.00 0.00 20 1029.8
20210614181304 81 15 6.0 10.0 0.00 0.00 0.00 21 1029.8
20210614180804 80 16 7.0 14.0 0.00 0.00 0.00 23 1029.8
20210614180303 80 354 6.0 10.0 0.00 0.00 0.00 23 1029.8
20210614175805 80 341 6.0 10.0 0.00 0.00 0.00 22 1029.8
20210614175305 80 31 6.0 12.0 0.00 0.00 0.00 24 1029.8
20210614174804 80 20 7.0 10.0 0.00 0.00 0.00 26 1029.8
20210614174304 80 29 6.0 10.0 0.00 0.00 0.00 27 1029.8
20210614173803 79 352 6.0 10.0 0.00 0.00 0.00 28 1029.8
20210614173303 79 357 6.0 8.0 0.00 0.00 0.00 26 1029.8
20210614172806 80 352 6.0 8.0 0.00 0.00 0.00 24 1029.8
20210614171803 79 15 6.0 9.0 0.00 0.00 0.00 28 1030.1
20210614171303 79 1 7.0 10.0 0.00 0.00 0.00 31 1029.8
20210614170803 79 330 5.0 8.0 0.00 0.00 0.00 31 1029.8
20210614170304 79 3 5.0 8.0 0.00 0.00 0.00 31 1029.8
20210614165803 67 0 2.0 5.0 0.00 0.00 0.00 55 1030.2
20210614165306 78 15 3.0 7.0 0.00 0.00 0.00 32 1029.8
20210614164804 77 35 6.0 8.0 0.00 0.00 0.00 34 1029.8
20210614164303 78 340 4.0 8.0 0.00 0.00 0.00 36 1029.9
20210614163804 77 16 2.0 8.0 0.00 0.00 0.00 37 1029.8
20210614163304 76 60 3.0 6.0 0.00 0.00 0.00 39 1029.8
20210614162804 76 55 5.0 7.0 0.00 0.00 0.00 41 1029.8
20210614162305 74 54 5.0 7.0 0.00 0.00 0.00 43 1029.8
20210614161804 67 0 2.0 5.0 0.00 0.00 0.00 55 1030.2
20210614161303 67 0 2.0 5.0 0.00 0.00 0.00 55 1030.2
20210614160803 72 66 4.0 6.0 0.00 0.00 0.00 48 1030.2
20210614160304 67 0 2.0 5.0 0.00 0.00 0.00 55 1030.2
20210614155804 71 105 5.0 7.0 0.00 0.00 0.00 53 1030.2
20210614155305 71 62 4.0 8.0 0.00 0.00 0.00 55 1030.2
20210614154804 70 60 5.0 8.0 0.00 0.00 0.00 56 1030.2
20210614154304 69 67 3.0 7.0 0.00 0.00 0.00 57 1030.2
20210614153804 69 64 5.0 8.0 0.00 0.00 0.00 57 1030.2
20210614153303 69 82 6.0 9.0 0.00 0.00 0.00 57 1030.2
20210614152804 68 60 3.0 7.0 0.00 0.00 0.00 57 1030.2
20210614152306 68 74 5.0 8.0 0.00 0.00 0.00 58 1030.2
20210614151805 68 78 3.0 8.0 0.00 0.00 0.00 58 1030.2
20210614151305 67 60 3.0 7.0 0.00 0.00 0.00 57 1030.2
20210614150806 67 0 2.0 5.0 0.00 0.00 0.00 55 1030.2
20210614150304 67 69 3.0 5.0 0.00 0.00 0.00 55 1030.2
20210614143304 67 82 3.0 6.0 0.00 0.00 0.00 56 1030.2
20210614142806 67 60 3.0 5.0 0.00 0.00 0.00 56 1030.2
20210614142305 67 60 3.0 5.0 0.00 0.00 0.00 55 1030.2
20210614141803 67 82 3.0 3.0 0.00 0.00 0.00 55 1030.2
20210614141303 67 60 3.0 5.0 0.00 0.00 0.00 54 1030.2
20210614140803 67 37 1.0 3.0 0.00 0.00 0.00 54 1030.2
20210614140303 66 37 1.0 3.0 0.00 0.00 0.00 55 1030.2
20210614135804 65 37 1.0 3.0 0.00 0.00 0.00 56 1030.2
20210614135305 65 37 0.0 2.0 0.00 0.00 0.00 55 1030.2
20210614134803 65 37 0.0 1.0 0.00 0.00 0.00 56 1030.2
20210614134303 64 37 2.0 3.0 0.00 0.00 0.00 56 1030.2
20210614133803 64 37 1.0 1.0 0.00 0.00 0.00 56 1030.2
20210614133303 64 37 0.0 2.0 0.00 0.00 0.00 56 1030.2
20210614132803 64 37 2.0 3.0 0.00 0.00 0.00 56 1029.8
20210614132305 64 37 4.0 7.0 0.00 0.00 0.00 57 1030.1
20210614131803 63 37 6.0 6.0 0.00 0.00 0.00 59 1029.8
20210614131303 62 278 0.0 2.0 0.00 0.00 0.00 59 1029.8
20210614130803 62 262 0.0 2.0 0.00 0.00 0.00 56 1029.8
20210614130304 61 262 2.0 3.0 0.00 0.00 0.00 56 1029.8
20210614125804 60 240 2.0 2.0 0.00 0.00 0.00 57 1029.8
20210614125305 59 240 3.0 3.0 0.00 0.00 0.00 56 1029.8
20210614124804 59 240 3.0 5.0 0.00 0.00 0.00 54 1029.6
20210614124304 58 240 3.0 5.0 0.00 0.00 0.00 51 1029.7
20210614123803 57 217 5.0 6.0 0.00 0.00 0.00 50 1029.8
20210614123303 56 217 4.0 7.0 0.00 0.00 0.00 49 1029.7
20210614122804 56 240 6.0 7.0 0.00 0.00 0.00 49 1029.7
20210614122306 55 240 6.0 7.0 0.00 0.00 0.00 48 1029.5
20210614121803 55 240 7.0 8.0 0.00 0.00 0.00 45 1029.5
20210614121303 55 240 7.0 8.0 0.00 0.00 0.00 43 1029.5
20210614120803 55 240 7.0 8.0 0.00 0.00 0.00 42 1029.5
20210614120303 54 240 8.0 8.0 0.00 0.00 0.00 41 1029.5
20210614115804 54 240 8.0 9.0 0.00 0.00 0.00 44 1029.5
20210614115305 54 240 8.0 10.0 0.00 0.00 0.00 47 1029.2
20210614114803 53 240 9.0 10.0 0.00 0.00 0.00 48 1029.2
20210614114303 53 240 8.0 10.0 0.00 0.00 0.00 49 1029.4
20210614113803 54 240 8.0 10.0 0.00 0.00 0.00 47 1029.5
20210614113303 54 240 8.0 9.0 0.00 0.00 0.00 47 1029.2
20210614112803 54 240 8.0 9.0 0.00 0.00 0.00 49 1029.2
20210614112305 54 240 8.0 9.0 0.00 0.00 0.00 51 1029.1
20210614111803 54 240 8.0 9.0 0.00 0.00 0.00 52 1029.1
20210614111303 54 240 8.0 8.0 0.00 0.00 0.00 52 1029.1
20210614110804 54 240 8.0 8.0 0.00 0.00 0.00 50 1029.1
20210614110303 54 240 8.0 9.0 0.00 0.00 0.00 47 1029.1
20210614105803 54 240 7.0 8.0 0.00 0.00 0.00 47 1029.1
20210614105305 54 240 8.0 9.0 0.00 0.00 0.00 49 1029.1
20210614104803 54 240 8.0 8.0 0.00 0.00 0.00 52 1029.0
20210614104303 54 240 8.0 9.0 0.00 0.00 0.00 54 1029.1
20210614103804 54 240 8.0 8.0 0.00 0.00 0.00 54 1028.9
20210614103303 54 240 7.0 8.0 0.00 0.00 0.00 54 1029.1
20210614102804 54 240 7.0 8.0 0.00 0.00 0.00 54 1029.1
20210614102305 54 240 7.0 8.0 0.00 0.00 0.00 53 1029.1
20210614101804 55 240 7.0 8.0 0.00 0.00 0.00 52 1029.1
20210614101304 55 240 7.0 8.0 0.00 0.00 0.00 53 1029.1
20210614100803 56 240 7.0 8.0 0.00 0.00 0.00 54 1029.0
20210614100303 56 240 6.0 8.0 0.00 0.00 0.00 55 1028.8
20210614095803 55 240 7.0 9.0 0.00 0.00 0.00 57 1028.8
20210614095305 55 240 7.0 9.0 0.00 0.00 0.00 59 1028.9
20210614094803 55 240 7.0 8.0 0.00 0.00 0.00 59 1028.8
20210614094303 55 240 7.0 8.0 0.00 0.00 0.00 59 1028.8
20210614093803 55 240 7.0 9.0 0.00 0.00 0.00 59 1028.8
20210614093304 55 240 7.0 9.0 0.00 0.00 0.00 61 1028.9
20210614092803 55 240 7.0 8.0 0.00 0.00 0.00 62 1028.9
20210614092305 56 240 7.0 8.0 0.00 0.00 0.00 62 1029.1
20210614091803 56 240 8.0 9.0 0.00 0.00 0.00 61 1029.1
20210614091303 56 240 8.0 9.0 0.00 0.00 0.00 60 1029.1
20210614090804 56 240 7.0 9.0 0.00 0.00 0.00 59 1029.1
20210614090304 57 240 7.0 8.0 0.00 0.00 0.00 60 1029.1
20210614085804 57 240 7.0 8.0 0.00 0.00 0.00 61 1029.2
20210614085305 57 240 6.0 7.0 0.00 0.00 0.00 61 1029.1
20210614084803 57 262 6.0 7.0 0.00 0.00 0.00 59 1029.1
20210614084303 56 242 6.0 7.0 0.00 0.00 0.00 57 1029.1
20210614083803 56 240 7.0 9.0 0.00 0.00 0.00 58 1029.1
20210614083303 56 240 7.0 9.0 0.00 0.00 0.00 59 1028.9
20210614082803 56 240 9.0 12.0 0.00 0.00 0.00 59 1028.8
20210614082305 56 240 8.0 10.0 0.00 0.00 0.00 60 1028.8
20210614081804 56 240 8.0 9.0 0.00 0.00 0.00 61 1028.8
20210614081304 56 240 7.0 8.0 0.00 0.00 0.00 62 1028.8
20210614080803 56 240 7.0 8.0 0.00 0.00 0.00 62 1029.1
20210614080304 57 240 7.0 8.0 0.00 0.00 0.00 62 1028.8
20210614075804 58 240 7.0 8.0 0.00 0.00 0.00 61 1028.8
20210614075305 58 260 6.0 8.0 0.00 0.00 0.00 61 1028.8
20210614074804 58 246 7.0 9.0 0.00 0.00 0.00 61 1028.8
20210614074303 58 240 6.0 8.0 0.00 0.00 0.00 61 1029.1
20210614073803 59 240 7.0 8.0 0.00 0.00 0.00 61 1029.1
20210614073303 60 245 6.0 7.0 0.00 0.00 0.00 60 1029.1
20210614072804 59 262 6.0 7.0 0.00 0.00 0.00 59 1029.1
20210614072305 59 262 6.0 8.0 0.00 0.00 0.00 59 1029.1
20210614071804 59 259 7.0 8.0 0.00 0.00 0.00 57 1029.1
20210614071303 59 240 7.0 8.0 0.00 0.00 0.00 58 1029.1
20210614070804 58 240 7.0 8.0 0.00 0.00 0.00 59 1029.1
20210614070303 58 240 7.0 9.0 0.00 0.00 0.00 61 1029.1
20210614065803 59 240 9.0 9.0 0.00 0.00 0.00 61 1029.1
20210614065305 59 240 6.0 8.0 0.00 0.00 0.00 61 1029.1
20210614064804 59 262 6.0 8.0 0.00 0.00 0.00 60 1028.8
20210614064303 59 262 6.0 6.0 0.00 0.00 0.00 58 1028.8
20210614063804 59 262 6.0 7.0 0.00 0.00 0.00 58 1028.8
20210614063303 59 240 7.0 8.0 0.00 0.00 0.00 58 1029.1
20210614062804 59 240 8.0 8.0 0.00 0.00 0.00 56 1029.1
20210614062305 61 240 7.0 7.0 0.00 0.00 0.00 54 1028.8
20210614061804 61 240 7.0 7.0 0.00 0.00 0.00 54 1028.8
20210614061304 61 240 7.0 7.0 0.00 0.00 0.00 54 1028.8
20210614060836 61 240 7.0 7.0 0.00 0.00 0.00 54 1028.8
20210614060304 61 240 7.0 7.0 0.00 0.00 0.00 54 1028.8
20210614055804 61 240 8.0 9.0 0.00 0.00 0.00 54 1028.8
20210614055305 62 240 7.0 8.0 0.00 0.00 0.00 52 1028.8
20210614054804 62 240 7.0 7.0 0.00 0.00 0.00 49 1028.8
20210614054304 62 240 7.0 7.0 0.00 0.00 0.00 49 1028.8
20210614053804 62 240 7.0 7.0 0.00 0.00 0.00 49 1028.8
20210614053304 62 240 7.0 7.0 0.00 0.00 0.00 49 1028.8
20210614052803 62 240 7.0 7.0 0.00 0.00 0.00 49 1028.8
20210614052305 62 240 7.0 7.0 0.00 0.00 0.00 49 1028.8
20210614051803 62 240 7.0 7.0 0.00 0.00 0.00 49 1028.8
20210614051303 63 240 7.0 7.0 0.00 0.00 0.00 48 1028.8
20210614050803 63 240 7.0 7.0 0.00 0.00 0.00 48 1028.8
20210614050304 63 240 7.0 7.0 0.00 0.00 0.00 48 1028.8
20210614045804 63 251 6.0 7.0 0.00 0.00 0.00 47 1028.8
20210614045305 63 262 6.0 6.0 0.00 0.00 0.00 45 1028.8
20210614044803 63 262 6.0 6.0 0.00 0.00 0.00 45 1028.8
20210614044304 63 262 6.0 6.0 0.00 0.00 0.00 45 1028.8
20210614043803 63 262 6.0 6.0 0.00 0.00 0.00 45 1028.8
20210614043304 64 240 6.0 6.0 0.00 0.00 0.00 46 1028.5
20210614042803 64 240 7.0 8.0 0.00 0.00 0.00 46 1028.5
20210614042306 65 240 7.0 8.0 0.00 0.00 0.00 46 1028.5
20210614041804 65 262 6.0 7.0 0.00 0.00 0.00 46 1028.5
20210614041303 65 272 5.0 5.0 0.00 0.00 0.00 47 1028.5
20210614040804 65 307 4.0 6.0 0.00 0.00 0.00 47 1028.5
20210614040304 65 8 4.0 6.0 0.00 0.00 0.00 46 1028.5
20210614035803 65 195 6.0 9.0 0.00 0.00 0.00 46 1028.1
20210614035305 66 195 7.0 8.0 0.00 0.00 0.00 47 1028.1
20210614034804 66 195 7.0 8.0 0.00 0.00 0.00 46 1028.1
20210614034303 66 195 7.0 8.0 0.00 0.00 0.00 46 1027.8
20210614033803 67 195 6.0 8.0 0.00 0.00 0.00 46 1028.1
20210614033303 67 172 8.0 8.0 0.00 0.00 0.00 46 1028.1
20210614032803 67 172 7.0 7.0 0.00 0.00 0.00 45 1028.1
20210614032305 67 172 7.0 8.0 0.00 0.00 0.00 45 1028.1
20210614031803 69 195 8.0 8.0 0.00 0.00 0.00 44 1027.8
20210614031303 70 195 8.0 9.0 0.00 0.00 0.00 44 1027.8
20210614030804 70 161 8.0 12.0 0.00 0.00 0.00 44 1027.8
20210614030303 70 150 7.0 12.0 0.00 0.00 0.00 44 1027.8
20210614025803 70 128 9.0 13.0 0.00 0.00 0.00 44 1027.8
20210614025305 70 126 6.0 12.0 0.00 0.00 0.00 44 1027.8
20210614024803 71 126 7.0 12.0 0.00 0.00 0.00 43 1027.8
20210614024304 71 118 10.0 14.0 0.00 0.00 0.00 43 1027.7
20210614023804 71 114 10.0 17.0 0.00 0.00 0.00 43 1027.4
20210614023304 72 125 13.0 18.0 0.00 0.00 0.00 42 1027.2
20210614022803 72 129 12.0 17.0 0.00 0.00 0.00 42 1027.2
20210614022305 72 129 13.0 18.0 0.00 0.00 0.00 42 1027.1
20210614021803 73 133 13.0 18.0 0.00 0.00 0.00 42 1027.1
20210614021304 73 149 14.0 22.0 0.00 0.00 0.00 42 1027.1
20210614020803 73 137 14.0 18.0 0.00 0.00 0.00 42 1027.2
20210614020304 73 140 13.0 18.0 0.00 0.00 0.00 42 1027.1
20210614015804 73 144 15.0 22.0 0.00 0.00 0.00 41 1027.1
20210614015305 73 141 14.0 21.0 0.00 0.00 0.00 41 1027.1
20210614014803 73 140 12.0 20.0 0.00 0.00 0.00 38 1026.9
20210614014304 74 134 12.0 20.0 0.00 0.00 0.00 35 1027.0
20210614013804 76 161 6.0 12.0 0.00 0.00 0.00 34 1026.9
20210614013304 78 217 6.0 7.0 0.00 0.00 0.00 33 1026.8
20210614012804 78 195 6.0 7.0 0.00 0.00 0.00 31 1026.8
20210614012305 78 111 3.0 5.0 0.00 0.00 0.00 30 1026.8
20210614011804 79 127 2.0 3.0 0.00 0.00 0.00 31 1026.8
20210614011304 79 150 2.0 3.0 0.00 0.00 0.00 30 1026.8
20210614010804 79 150 3.0 5.0 0.00 0.00 0.00 29 1026.8